Terminal Aerodrome Forecast
Issued by NWS

Home | Current Version | Previous Version | Text Only | Print | Product List | Glossary On
Versions: 1 2 3 4 5 6 7 8 9 10 11 12 13 14 15 16 17 18
000
FTUS46 KSEW 191200 AAA
TAFPAE
TAF AMD
KPAE 191211Z 1912/2012 00000KT P6SM SCT005 BKN010 OVC015
      TEMPO 1912/1916 2SM -RA BR BKN005 OVC010
     FM191900 21006KT P6SM BKN020 OVC030
     FM192100 25006KT P6SM SCT030 BKN050
     FM200000 35005KT P6SM SCT060 SCT120=

USA.gov is the U.S. government's official web portal to all federal, state and local government web resources and services.